Time;durP1;ratioP1;P1;durP2;ratioP2;P2;SDS_P1;SDS_P2;PMS_P1;PMS_P2;Temp;Humidity;BMP_temperature;BMP_pressure;BME280_temperature;BME280_humidity;BME280_pressure;Samples;Min_cycle;Max_cycle;Signal;HPM_P1;HPM_P2
2022/05/17 00:00:49;;;;;;;10.13;4.88;;;;;;;11.98;86.22;101945.31;4846025;29;20037;-77
2022/05/17 00:03:15;;;;;;;12.93;5.13;;;;;;;12.26;86.56;102000.88;4862537;29;20188;-77
2022/05/17 00:05:45;;;;;;;11.88;4.95;;;;;;;12.22;86.65;101997.63;4845654;29;20116;-81
2022/05/17 00:08:10;;;;;;;9.18;4.60;;;;;;;12.20;86.46;101996.88;4845360;29;20038;-78
2022/05/17 00:10:36;;;;;;;12.43;4.55;;;;;;;12.20;86.65;102001.22;4862146;29;20094;-80
2022/05/17 00:13:03;;;;;;;8.35;4.57;;;;;;;12.21;86.19;101993.38;4845294;29;20490;-78
2022/05/17 00:15:29;;;;;;;10.45;5.10;;;;;;;12.19;86.73;101991.75;4862281;29;20105;-78
2022/05/17 00:17:55;;;;;;;11.93;5.57;;;;;;;12.14;86.90;101992.00;4862183;29;20471;-84
2022/05/17 00:20:21;;;;;;;11.93;5.25;;;;;;;11.91;86.98;101953.50;4862117;29;20398;-77
2022/05/17 00:22:47;;;;;;;9.63;4.53;;;;;;;12.08;87.27;101992.28;4845469;29;20025;-78
2022/05/17 00:25:15;;;;;;;8.70;4.57;;;;;;;12.05;87.21;101987.28;4861690;29;20090;-79
2022/05/17 00:27:40;;;;;;;11.43;5.30;;;;;;;11.89;87.43;101955.31;4861684;29;20032;-80
2022/05/17 00:30:07;;;;;;;11.70;4.40;;;;;;;12.09;87.07;101978.44;4861880;29;20474;-81
2022/05/17 00:32:33;;;;;;;9.73;4.60;;;;;;;12.01;87.31;101967.66;4845421;29;20038;-85
2022/05/17 00:34:58;;;;;;;9.50;4.60;;;;;;;11.74;87.87;101915.50;4861832;29;20484;-77
2022/05/17 00:37:24;;;;;;;13.48;4.93;;;;;;;12.03;87.85;101966.66;4844818;29;20029;-84
2022/05/17 00:39:49;;;;;;;8.90;4.32;;;;;;;12.06;87.49;101974.25;4861571;29;20109;-77
2022/05/17 00:42:15;;;;;;;11.55;4.97;;;;;;;11.68;87.42;101916.63;4861830;29;20034;-78
2022/05/17 00:44:43;;;;;;;9.95;4.80;;;;;;;11.89;87.67;101942.38;4861579;29;20040;-80
2022/05/17 00:47:30;;;;;;;9.00;4.50;;;;;;;12.03;87.38;101968.41;4861856;29;20034;-81
2022/05/17 00:50:20;;;;;;;11.48;4.72;;;;;;;11.85;87.60;101940.84;4861559;29;20034;-84
2022/05/17 00:52:50;;;;;;;9.13;5.18;;;;;;;12.00;88.17;101978.94;4861387;29;20104;-78
2022/05/17 00:55:32;;;;;;;10.00;4.70;;;;;;;11.73;88.48;101935.34;4861406;29;20025;-78
2022/05/17 00:58:19;;;;;;;10.32;5.05;;;;;;;11.95;88.17;101968.78;4861244;29;20037;-78
2022/05/17 01:01:02;;;;;;;11.95;5.57;;;;;;;12.00;88.69;101979.75;4861173;29;20052;-77
2022/05/17 01:03:33;;;;;;;9.40;5.05;;;;;;;11.33;88.46;101877.00;4861279;29;20233;-80
2022/05/17 01:06:01;;;;;;;10.93;5.50;;;;;;;11.97;88.56;101971.28;4861038;29;20033;-84
2022/05/17 01:08:28;;;;;;;9.63;5.30;;;;;;;11.76;89.06;101929.19;4861162;29;20062;-83
2022/05/17 01:10:53;;;;;;;10.10;5.30;;;;;;;12.02;89.12;101969.31;4861191;29;20028;-79
2022/05/17 01:16:03;;;;;;;13.88;5.57;;;;;;;11.92;89.28;101931.88;4861465;29;20042;-79
2022/05/17 01:18:32;;;;;;;7.90;4.70;;;;;;;12.11;89.46;101949.91;4860904;29;20034;-78
2022/05/17 01:20:58;;;;;;;8.45;5.03;;;;;;;12.29;89.32;101957.56;4860879;29;20029;-79
2022/05/17 01:23:23;;;;;;;10.73;5.30;;;;;;;11.81;89.36;101874.66;4861031;29;20394;-79
2022/05/17 01:25:48;;;;;;;12.57;5.70;;;;;;;12.44;89.38;101955.91;4860904;29;20080;-76
2022/05/17 01:28:24;;;;;;;11.38;5.88;;;;;;;12.48;89.21;101961.75;4860825;29;20080;-78
2022/05/17 01:30:49;;;;;;;10.57;4.97;;;;;;;12.22;89.35;101916.50;4860778;29;20504;-78
2022/05/17 01:33:16;;;;;;;10.52;5.80;;;;;;;12.56;89.51;101954.41;4844310;29;20050;-77
2022/05/17 01:35:42;;;;;;;11.15;5.93;;;;;;;12.57;89.88;101964.69;4860786;29;20032;-79
2022/05/17 01:38:08;;;;;;;10.27;5.53;;;;;;;12.44;89.52;101935.19;4860811;29;20037;-78
2022/05/17 01:40:33;;;;;;;10.73;5.55;;;;;;;12.69;89.54;101975.34;4860714;29;20446;-78
2022/05/17 01:42:59;;;;;;;12.10;5.78;;;;;;;12.70;89.43;101970.06;4860918;29;20120;-86
2022/05/17 01:45:24;;;;;;;9.90;6.00;;;;;;;12.80;89.54;101973.84;4860511;29;20048;-78
2022/05/17 01:47:50;;;;;;;10.90;5.68;;;;;;;12.80;89.16;101968.66;4860454;29;20112;-77
2022/05/17 01:50:15;;;;;;;11.70;5.47;;;;;;;12.54;89.38;101909.59;4860289;29;20108;-77
2022/05/17 01:52:41;;;;;;;10.80;5.90;;;;;;;12.47;89.50;101898.72;4860600;29;20382;-85
2022/05/17 01:55:07;;;;;;;13.85;6.30;;;;;;;12.71;89.78;101927.69;4860455;29;20036;-79
2022/05/17 01:57:33;;;;;;;11.38;5.72;;;;;;;12.69;89.34;101908.78;4860542;29;20037;-85
2022/05/17 01:59:58;;;;;;;13.15;6.22;;;;;;;12.77;89.58;101926.50;4843200;29;20109;-79
2022/05/17 02:02:23;;;;;;;12.48;6.43;;;;;;;13.00;89.90;101956.38;4860392;29;20396;-85
2022/05/17 02:04:51;;;;;;;12.90;5.93;;;;;;;12.59;89.79;101886.91;4860298;29;20149;-79
2022/05/17 02:07:16;;;;;;;12.65;6.20;;;;;;;12.74;89.75;101905.94;4843961;29;20031;-79
2022/05/17 02:09:42;;;;;;;11.75;6.07;;;;;;;13.15;89.84;101971.06;4843672;29;20505;-78
2022/05/17 02:12:08;;;;;;;11.70;5.78;;;;;;;13.16;89.95;101968.38;4860364;29;20029;-79
2022/05/17 02:14:33;;;;;;;11.93;6.32;;;;;;;12.93;90.06;101950.66;4860491;29;20636;-77
2022/05/17 02:17:03;;;;;;;12.07;6.72;;;;;;;13.12;89.96;101972.06;4842791;29;20037;-79
2022/05/17 02:19:30;;;;;;;13.55;6.68;;;;;;;12.73;90.04;101907.69;4859984;29;20037;-78
2022/05/17 02:21:56;;;;;;;13.10;6.93;;;;;;;12.90;89.91;101935.28;4860346;29;20029;-78
2022/05/17 02:24:22;;;;;;;11.35;6.95;;;;;;;13.11;90.11;101967.81;4860253;29;20089;-80
2022/05/17 02:26:47;;;;;;;12.32;6.03;;;;;;;13.09;90.17;101967.06;4860243;29;20390;-78
2022/05/17 02:29:13;;;;;;;11.20;6.32;;;;;;;12.77;90.40;101921.31;4860031;29;20029;-78
2022/05/17 02:31:38;;;;;;;12.23;6.43;;;;;;;12.88;90.62;101937.09;4860097;29;20037;-78
2022/05/17 02:34:04;;;;;;;10.32;6.05;;;;;;;12.89;90.33;101939.63;4860330;29;20053;-84
2022/05/17 02:36:29;;;;;;;11.93;6.90;;;;;;;13.15;90.37;101978.84;4860241;29;20029;-78
2022/05/17 02:38:54;;;;;;;10.85;6.70;;;;;;;13.16;90.21;101980.50;4860267;29;20037;-83
2022/05/17 02:41:20;;;;;;;14.73;7.75;;;;;;;12.97;90.57;101946.97;4860204;29;20386;-79
2022/05/17 02:43:47;;;;;;;13.73;6.95;;;;;;;13.17;90.67;101980.44;4842991;29;20274;-79
2022/05/17 02:46:12;;;;;;;11.40;6.35;;;;;;;13.23;89.92;101984.47;4859889;29;20037;-79
2022/05/17 02:48:38;;;;;;;12.30;7.53;;;;;;;12.77;90.45;101909.19;4859995;29;20493;-79
2022/05/17 02:51:15;;;;;;;13.98;7.07;;;;;;;12.92;90.44;101943.81;4860356;29;20025;-84
2022/05/17 02:53:41;;;;;;;13.02;6.88;;;;;;;12.75;90.08;101926.59;4860003;29;20033;-78
2022/05/17 02:56:08;;;;;;;11.70;6.47;;;;;;;12.55;90.36;101919.88;4860175;29;20037;-80
2022/05/17 02:58:34;;;;;;;14.35;7.38;;;;;;;12.72;90.21;101954.44;4859698;29;20034;-77
2022/05/17 03:01:00;;;;;;;14.27;7.65;;;;;;;12.72;90.48;101978.59;4862177;29;20501;-82
2022/05/17 03:03:26;;;;;;;13.13;7.40;;;;;;;12.80;90.71;101998.94;4863317;29;20033;-83
2022/05/17 03:05:51;;;;;;;14.32;7.32;;;;;;;12.55;90.91;101965.69;4863244;29;20105;-79
2022/05/17 03:08:17;;;;;;;14.27;7.07;;;;;;;12.25;90.81;101927.53;4863342;29;20029;-79
2022/05/17 03:10:42;;;;;;;13.20;6.80;;;;;;;12.55;90.90;101976.06;4846437;29;20041;-80
2022/05/17 03:13:13;;;;;;;12.32;6.88;;;;;;;12.56;91.17;101990.69;4863124;29;20386;-84
2022/05/17 03:15:39;;;;;;;14.32;7.22;;;;;;;12.53;91.64;101991.69;4863349;29;20060;-77
2022/05/17 03:18:04;;;;;;;12.23;6.47;;;;;;;12.23;91.79;101942.31;4846909;29;20474;-77
2022/05/17 03:20:30;;;;;;;13.25;7.03;;;;;;;12.45;91.73;101993.84;4863281;29;20045;-80
2022/05/17 03:22:55;;;;;;;13.82;7.97;;;;;;;12.27;91.92;101956.78;4863122;29;20120;-83
2022/05/17 03:25:21;;;;;;;13.18;7.85;;;;;;;12.49;92.56;101987.59;4862835;29;20044;-86
2022/05/17 03:27:46;;;;;;;15.48;8.68;;;;;;;12.45;92.48;101991.25;4862726;29;20029;-84
2022/05/17 03:30:12;;;;;;;12.38;7.55;;;;;;;12.51;92.45;101995.28;4862854;29;20386;-85
2022/05/17 03:32:38;;;;;;;14.88;7.85;;;;;;;12.19;92.71;101939.97;4863127;29;20030;-84
2022/05/17 03:35:04;;;;;;;16.38;8.48;;;;;;;12.53;92.45;101991.69;4846602;29;20030;-86
2022/05/17 03:37:29;;;;;;;12.27;7.25;;;;;;;12.54;92.41;101995.94;4862893;29;20037;-86
2022/05/17 03:39:55;;;;;;;12.90;7.63;;;;;;;12.26;92.44;101951.69;4862683;29;20157;-84
2022/05/17 03:42:20;;;;;;;13.10;7.88;;;;;;;12.54;92.61;101997.72;4845676;29;20042;-78
2022/05/17 03:44:46;;;;;;;12.07;7.45;;;;;;;12.53;92.54;101998.63;4845794;29;20500;-84
2022/05/17 03:47:11;;;;;;;15.38;8.07;;;;;;;12.46;92.86;101984.31;4862482;29;20030;-79
2022/05/17 03:49:38;;;;;;;13.95;6.88;;;;;;;12.32;92.51;101957.38;4846425;29;20029;-82
2022/05/17 03:52:05;;;;;;;13.18;7.15;;;;;;;12.31;92.25;101950.53;4862653;29;20026;-82
2022/05/17 03:54:30;;;;;;;10.65;7.47;;;;;;;12.10;92.43;101909.38;4862390;29;20367;-83
2022/05/17 03:56:55;;;;;;;13.30;7.30;;;;;;;12.15;92.35;101918.56;4862542;29;20030;-78
2022/05/17 03:59:21;;;;;;;13.77;7.45;;;;;;;12.49;92.47;101972.06;4862190;29;20061;-85
2022/05/17 04:01:46;;;;;;;15.02;8.35;;;;;;;12.66;92.51;101989.28;4862308;29;20136;-85
2022/05/17 04:04:12;;;;;;;13.95;8.02;;;;;;;12.71;92.01;101994.22;4862095;29;20037;-85
2022/05/17 04:06:38;;;;;;;16.58;8.00;;;;;;;12.48;92.34;101953.97;4862463;29;20033;-84
2022/05/17 04:09:05;;;;;;;15.20;8.25;;;;;;;12.72;92.12;101983.78;4862232;29;20028;-85
2022/05/17 04:11:31;;;;;;;13.77;8.88;;;;;;;12.39;92.12;101933.72;4861563;29;20056;-86
2022/05/17 04:13:56;;;;;;;13.80;8.00;;;;;;;12.59;92.28;101965.47;4862134;29;20466;-81
2022/05/17 04:16:22;;;;;;;15.50;8.35;;;;;;;12.55;92.28;101944.97;4862017;29;20390;-79
2022/05/17 04:18:48;;;;;;;15.57;7.90;;;;;;;13.00;91.89;102006.47;4862001;29;20061;-84
2022/05/17 04:21:13;;;;;;;16.80;7.93;;;;;;;13.04;91.85;102001.94;4862116;29;20075;-81
2022/05/17 04:23:39;;;;;;;14.85;8.27;;;;;;;12.87;91.87;101974.31;4861932;29;20060;-78
2022/05/17 04:26:04;;;;;;;15.35;8.25;;;;;;;12.98;91.65;101990.16;4862157;29;20070;-86
2022/05/17 04:28:30;;;;;;;20.67;9.82;;;;;;;13.04;91.86;101992.41;4861919;29;20184;-86
2022/05/17 04:30:55;;;;;;;15.10;8.88;;;;;;;13.26;91.91;102020.63;4861647;29;20166;-84
2022/05/17 04:33:21;;;;;;;15.73;8.95;;;;;;;13.33;91.78;102016.75;4861973;29;20025;-82
2022/05/17 04:35:47;;;;;;;17.85;8.50;;;;;;;13.41;91.99;102006.81;4861777;29;20053;-79
2022/05/17 04:38:12;;;;;;;15.98;9.25;;;;;;;13.18;92.50;101965.72;4861722;29;20034;-80
2022/05/17 04:40:44;;;;;;;17.90;9.32;;;;;;;13.05;92.12;101931.84;4862014;29;20108;-79
2022/05/17 04:43:10;;;;;;;19.65;9.50;;;;;;;13.50;92.17;102000.25;4861706;29;20386;-80
2022/05/17 04:45:35;;;;;;;15.82;9.13;;;;;;;13.55;92.23;102003.41;4861660;29;20189;-79
2022/05/17 04:48:02;;;;;;;15.43;9.43;;;;;;;13.42;92.38;101969.56;4861395;29;20033;-78
2022/05/17 04:50:28;;;;;;;14.80;9.30;;;;;;;13.62;92.36;101989.19;4861502;29;20085;-85
2022/05/17 04:52:54;;;;;;;15.98;9.45;;;;;;;13.55;92.33;101963.66;4861779;29;20478;-86
2022/05/17 04:55:21;;;;;;;19.63;9.85;;;;;;;13.19;92.42;101900.00;4861424;29;20030;-84
2022/05/17 04:57:46;;;;;;;17.27;9.48;;;;;;;14.00;93.02;102017.28;4861326;29;20033;-86
2022/05/17 05:00:15;;;;;;;18.33;9.48;;;;;;;14.13;92.25;102020.00;4861046;29;20049;-86
2022/05/17 05:02:41;;;;;;;14.98;9.32;;;;;;;14.20;92.07;102021.31;4861152;29;20036;-84
2022/05/17 05:05:07;;;;;;;15.38;9.00;;;;;;;14.11;91.43;101995.88;4861215;29;20402;-85
2022/05/17 05:07:32;;;;;;;15.20;9.38;;;;;;;14.28;91.36;102006.94;4861240;29;20036;-80
2022/05/17 05:09:57;;;;;;;15.82;9.63;;;;;;;14.38;89.38;102009.00;4861258;29;20534;-79
2022/05/17 05:12:25;;;;;;;15.95;9.25;;;;;;;14.25;89.29;101969.91;4861148;29;20037;-80
2022/05/17 05:14:51;;;;;;;15.65;9.07;;;;;;;14.67;90.05;102028.88;4860974;29;20081;-79
2022/05/17 05:17:16;;;;;;;20.30;9.52;;;;;;;14.48;89.97;101992.78;4861007;29;20148;-79
2022/05/17 05:19:42;;;;;;;14.07;8.52;;;;;;;14.86;88.42;102028.59;4844370;29;20541;-88
2022/05/17 05:22:07;;;;;;;17.38;8.88;;;;;;;14.98;88.69;102038.22;4861153;29;20033;-80
2022/05/17 05:24:33;;;;;;;13.73;8.70;;;;;;;15.08;87.54;102035.91;4860869;29;20025;-79
2022/05/17 05:26:59;;;;;;;14.25;7.97;;;;;;;15.04;86.95;102027.44;4861110;29;20471;-80
2022/05/17 05:29:28;;;;;;;13.52;7.93;;;;;;;14.84;86.22;101978.44;4859856;29;20029;-78
2022/05/17 05:31:53;;;;;;;15.15;7.80;;;;;;;15.42;86.34;102047.59;4860414;29;20033;-87
2022/05/17 05:34:19;;;;;;;12.60;7.65;;;;;;;15.70;84.81;102046.69;4860849;29;20443;-88
2022/05/17 05:36:46;;;;;;;12.35;7.00;;;;;;;15.94;84.63;102045.09;4860793;29;20085;-84
2022/05/17 05:39:14;;;;;;;14.95;7.70;;;;;;;15.57;83.55;101980.69;4860885;29;20025;-80
2022/05/17 05:41:40;;;;;;;18.75;7.82;;;;;;;16.00;81.82;102052.47;4844256;29;20045;-76
2022/05/17 05:44:05;;;;;;;15.75;8.07;;;;;;;16.05;80.69;102052.19;4860772;29;20065;-87
2022/05/17 05:46:33;;;;;;;15.02;8.77;;;;;;;15.92;80.09;102033.09;4860394;29;20045;-78
2022/05/17 05:48:59;;;;;;;18.13;8.30;;;;;;;15.84;79.51;102015.38;4860969;29;20074;-78
2022/05/17 05:51:24;;;;;;;20.90;9.10;;;;;;;16.10;78.22;102059.69;4860757;29;20026;-78
2022/05/17 05:53:50;;;;;;;19.98;8.13;;;;;;;16.12;78.26;102063.03;4844347;29;20402;-79
2022/05/17 05:56:15;;;;;;;18.20;9.07;;;;;;;16.16;80.18;102059.28;4860596;29;20048;-78
2022/05/17 05:58:42;;;;;;;14.63;8.77;;;;;;;15.94;79.02;102015.59;4860413;29;20029;-78
2022/05/17 06:01:08;;;;;;;15.23;7.95;;;;;;;16.13;77.74;102036.06;4860362;29;20033;-78
2022/05/17 06:03:35;;;;;;;16.73;8.80;;;;;;;16.09;77.48;102004.13;4860493;29;20121;-79
2022/05/17 06:06:02;;;;;;;14.32;7.50;;;;;;;16.57;77.22;102059.94;4859744;29;20041;-78
2022/05/17 06:08:34;;;;;;;13.25;7.97;;;;;;;15.93;77.72;101956.63;4860525;29;20029;-79
2022/05/17 06:11:14;;;;;;;15.05;7.70;;;;;;;16.46;77.13;102046.78;4843573;29;20042;-77
2022/05/17 06:13:39;;;;;;;17.33;8.68;;;;;;;16.51;79.30;102062.94;4860388;29;20026;-79
2022/05/17 06:16:04;;;;;;;13.95;7.85;;;;;;;16.44;77.49;102066.94;4861105;29;20705;-79
2022/05/17 06:18:30;;;;;;;14.90;7.85;;;;;;;16.40;78.98;102075.03;4860083;29;20037;-76
2022/05/17 06:20:59;;;;;;;16.33;7.75;;;;;;;16.34;78.93;102071.09;4860403;29;20475;-83
2022/05/17 06:23:26;;;;;;;12.68;6.78;;;;;;;16.30;77.60;102077.44;4860341;29;20038;-80
2022/05/17 06:25:54;;;;;;;17.52;8.18;;;;;;;16.29;77.89;102071.38;4860280;29;20044;-77
2022/05/17 06:28:20;;;;;;;15.60;8.02;;;;;;;16.24;78.72;102064.84;4843601;29;20061;-78
2022/05/17 06:30:45;;;;;;;19.73;8.38;;;;;;;15.93;78.26;102014.78;4860179;29;20518;-78
2022/05/17 06:33:12;;;;;;;16.65;7.80;;;;;;;16.17;79.29;102055.75;4860174;29;20475;-73
2022/05/17 06:35:39;;;;;;;14.20;7.55;;;;;;;16.34;79.45;102082.34;4862131;29;20026;-72
2022/05/17 06:38:04;;;;;;;16.08;7.63;;;;;;;16.34;77.65;102069.31;4863782;29;20033;-73
2022/05/17 06:40:31;;;;;;;17.40;8.18;;;;;;;16.36;78.41;102074.44;4863792;29;20375;-74
2022/05/17 06:42:56;;;;;;;15.95;8.15;;;;;;;16.37;78.08;102076.09;4863673;29;20074;-78
2022/05/17 06:45:22;;;;;;;13.45;7.85;;;;;;;16.31;79.16;102076.50;4863719;29;20029;-72
2022/05/17 06:47:47;;;;;;;14.45;7.68;;;;;;;16.11;80.01;102040.50;4863546;29;20478;-74
2022/05/17 06:50:13;;;;;;;17.33;8.48;;;;;;;16.04;82.64;102038.34;4863592;29;20229;-76
2022/05/17 06:52:39;;;;;;;23.33;8.90;;;;;;;16.25;83.06;102077.75;4863564;29;20120;-78
2022/05/17 06:55:06;;;;;;;17.67;10.02;;;;;;;16.30;84.23;102090.47;4863695;29;20037;-76
2022/05/17 06:57:32;;;;;;;13.35;8.20;;;;;;;15.90;84.11;102024.53;4863419;29;20425;-76
2022/05/17 06:59:57;;;;;;;14.30;8.32;;;;;;;16.35;84.54;102093.63;4863512;29;20502;-75
2022/05/17 07:02:23;;;;;;;18.48;9.00;;;;;;;16.22;84.45;102075.38;4863295;29;20077;-76
2022/05/17 07:04:48;;;;;;;13.85;7.90;;;;;;;16.35;84.60;102096.22;4863310;29;20041;-75
2022/05/17 07:07:13;;;;;;;14.52;8.65;;;;;;;16.00;85.45;102041.22;4863438;29;20033;-76
2022/05/17 07:09:39;;;;;;;15.63;8.77;;;;;;;16.40;85.42;102090.69;4863598;29;20037;-75
2022/05/17 07:14:49;;;;;;;16.83;9.13;;;;;;;16.57;84.25;102093.81;4863457;29;20513;-80
2022/05/17 07:17:20;;;;;;;18.63;10.25;;;;;;;16.69;83.38;102097.41;4863157;29;20025;-77
2022/05/17 07:19:46;;;;;;;16.70;9.15;;;;;;;16.79;82.52;102106.25;4863152;29;20037;-78
2022/05/17 07:22:12;;;;;;;13.35;9.00;;;;;;;16.86;82.83;102107.50;4863336;29;20025;-78
2022/05/17 07:24:40;;;;;;;17.35;9.75;;;;;;;16.91;82.68;102118.47;4863204;29;20040;-72
2022/05/17 07:27:06;;;;;;;14.32;9.60;;;;;;;16.91;82.67;102118.47;4863130;29;20036;-76
2022/05/17 07:29:32;;;;;;;17.08;9.65;;;;;;;16.90;82.06;102108.97;4846164;29;20041;-75
2022/05/17 07:31:58;;;;;;;14.40;10.07;;;;;;;16.97;83.49;102112.00;4862866;29;20037;-83
2022/05/17 07:34:23;;;;;;;17.73;10.07;;;;;;;16.75;83.38;102083.13;4862701;29;20040;-74
2022/05/17 07:36:49;;;;;;;19.52;10.23;;;;;;;16.76;83.33;102071.75;4862814;29;20021;-74
2022/05/17 07:39:14;;;;;;;15.30;9.40;;;;;;;16.94;84.03;102099.16;4862761;29;20471;-74
2022/05/17 07:41:43;;;;;;;13.50;9.60;;;;;;;16.98;83.28;102091.94;4863072;29;20109;-73
2022/05/17 07:44:09;;;;;;;16.38;9.15;;;;;;;17.04;83.74;102094.97;4863115;29;20038;-78
2022/05/17 07:46:34;;;;;;;14.95;9.75;;;;;;;17.09;83.28;102105.91;4861681;29;20097;-72
2022/05/17 07:49:00;;;;;;;16.38;9.43;;;;;;;17.12;84.37;102102.25;4862492;29;20040;-83
2022/05/17 07:51:25;;;;;;;18.17;10.43;;;;;;;17.17;84.41;102105.38;4845732;29;20042;-74
2022/05/17 07:53:51;;;;;;;17.98;9.75;;;;;;;17.18;84.32;102105.25;4862552;29;20041;-83
2022/05/17 07:56:17;;;;;;;14.57;10.60;;;;;;;17.16;84.25;102106.31;4862590;29;20036;-82
2022/05/17 07:58:42;;;;;;;19.70;11.43;;;;;;;17.20;83.73;102097.31;4862287;29;20120;-82
2022/05/17 08:01:08;;;;;;;22.08;10.70;;;;;;;17.10;82.99;102078.84;4860792;29;20037;-74
2022/05/17 08:03:34;;;;;;;19.15;11.55;;;;;;;17.47;82.68;102112.81;4860570;29;20034;-82
2022/05/17 08:05:59;;;;;;;17.75;10.57;;;;;;;17.19;81.74;102052.09;4861013;29;20029;-84
2022/05/17 08:08:25;;;;;;;14.90;11.00;;;;;;;17.82;82.43;102128.59;4861574;29;20026;-83
2022/05/17 08:10:51;;;;;;;17.08;9.55;;;;;;;18.03;80.56;102132.22;4861179;29;20033;-74
2022/05/17 08:13:18;;;;;;;12.60;8.30;;;;;;;18.05;76.92;102108.59;4844419;29;20455;-77
2022/05/17 08:15:44;;;;;;;13.63;7.47;;;;;;;18.41;75.15;102130.34;4844504;29;20026;-76
2022/05/17 08:18:10;;;;;;;12.35;7.80;;;;;;;18.53;74.46;102130.22;4861383;29;20050;-83
2022/05/17 08:20:36;;;;;;;12.40;7.45;;;;;;;18.34;74.45;102069.81;4861066;29;20439;-74
2022/05/17 08:23:03;;;;;;;13.68;7.40;;;;;;;18.72;73.25;102121.00;4861226;29;20029;-80
2022/05/17 08:28:12;;;;;;;11.13;5.82;;;;;;;18.56;72.68;102109.06;4861281;29;20048;-75
2022/05/17 08:30:38;;;;;;;11.00;5.70;;;;;;;18.67;71.60;102120.50;4861093;29;20033;-81
2022/05/17 08:33:16;;;;;;;14.27;6.22;;;;;;;18.50;71.71;102116.56;4861062;29;20108;-74
2022/05/17 08:36:00;;;;;;;12.45;5.50;;;;;;;18.51;73.02;102102.53;4861134;29;20033;-79
2022/05/17 08:38:33;;;;;;;11.48;5.50;;;;;;;18.46;71.26;102134.25;4860835;29;20040;-74
2022/05/17 08:41:13;;;;;;;12.60;5.78;;;;;;;18.34;70.92;102128.16;4860788;29;20121;-82
2022/05/17 08:43:50;;;;;;;10.77;5.75;;;;;;;18.23;73.10;102133.38;4860878;29;20029;-74
2022/05/17 08:46:23;;;;;;;10.85;5.30;;;;;;;18.18;73.60;102137.25;4860694;29;20033;-77
2022/05/17 08:48:55;;;;;;;11.50;6.63;;;;;;;17.80;73.37;102083.44;4860600;29;20181;-74
2022/05/17 08:51:32;;;;;;;12.05;6.85;;;;;;;17.77;74.54;102084.47;4860297;29;20030;-75
2022/05/17 08:53:58;;;;;;;10.75;6.50;;;;;;;17.98;72.60;102113.44;4860497;29;20097;-85
2022/05/17 08:56:28;;;;;;;11.15;6.43;;;;;;;17.95;73.21;102108.44;4859028;29;20032;-82
2022/05/17 08:58:55;;;;;;;12.60;7.25;;;;;;;18.08;74.08;102103.13;4819322;29;1216104;-82
2022/05/17 09:01:25;;;;;;;13.05;7.38;;;;;;;18.31;72.96;102096.19;4861417;29;20401;-82
2022/05/17 09:03:56;;;;;;;13.68;7.78;;;;;;;18.60;73.08;102094.81;4860990;29;20037;-83
2022/05/17 09:07:00;;;;;;;12.55;6.57;;;;;;;18.87;70.84;102091.84;4861253;29;20386;-83
2022/05/17 09:09:34;;;;;;;11.68;6.18;;;;;;;19.20;69.04;102098.03;4768572;30;20074;-80
2022/05/17 09:12:06;;;;;;;8.82;6.38;;;;;;;19.53;68.93;102097.09;4753494;30;20040;-74
2022/05/17 09:14:36;;;;;;;10.80;5.25;;;;;;;19.54;66.28;102059.47;4768272;30;20084;-77
2022/05/17 09:17:14;;;;;;;9.55;4.90;;;;;;;19.94;65.03;102095.53;4768297;30;20028;-73
2022/05/17 09:19:40;;;;;;;9.85;4.72;;;;;;;20.09;64.92;102096.06;4768273;30;20047;-80
2022/05/17 09:22:06;;;;;;;9.35;3.85;;;;;;;20.29;64.78;102101.31;4768364;30;20116;-81
2022/05/17 09:24:40;;;;;;;10.82;3.15;;;;;;;20.51;62.58;102081.16;4768205;30;20043;-73
2022/05/17 09:27:20;;;;;;;11.05;2.95;;;;;;;20.56;61.56;102090.31;4768225;30;20028;-75
2022/05/17 09:29:47;;;;;;;10.40;2.65;;;;;;;20.53;61.52;102081.84;4768281;30;20036;-81
2022/05/17 09:32:24;;;;;;;8.45;2.72;;;;;;;20.49;60.93;102041.94;4768137;30;20050;-77
2022/05/17 09:34:59;;;;;;;10.10;2.75;;;;;;;20.83;60.29;102088.88;4768030;30;20039;-75
2022/05/17 09:37:32;;;;;;;7.57;2.58;;;;;;;20.60;60.02;102033.13;4767904;30;20047;-75
2022/05/17 09:39:57;;;;;;;7.05;3.00;;;;;;;20.87;60.81;102066.69;4768189;30;20474;-75
2022/05/17 09:42:27;;;;;;;10.18;3.97;;;;;;;21.09;60.39;102091.88;4768044;30;20064;-76
2022/05/17 09:44:56;;;;;;;9.50;4.50;;;;;;;21.14;60.18;102074.78;4809653;29;20065;-79
2022/05/17 09:47:31;;;;;;;9.48;4.70;;;;;;;21.37;60.48;102085.91;4860513;29;20090;-77
2022/05/17 09:53:03;;;;;;;10.20;4.70;;;;;;;22.17;59.68;102086.59;4860635;29;20274;-79
2022/05/17 09:55:32;;;;;;;10.50;4.60;;;;;;;22.42;57.76;102082.50;4860065;29;20030;-78
2022/05/17 09:58:05;;;;;;;8.70;4.25;;;;;;;22.43;58.29;102040.25;4860626;29;20067;-76
2022/05/17 10:00:40;;;;;;;9.57;4.13;;;;;;;22.88;55.56;102068.47;4843605;29;20049;-75
2022/05/17 10:03:34;;;;;;;7.95;3.40;;;;;;;23.18;56.20;102070.78;4860415;29;20046;-79
2022/05/17 10:06:04;;;;;;;7.15;4.22;;;;;;;23.53;54.62;102074.44;4860340;29;20475;-76
2022/05/17 10:08:56;;;;;;;8.00;4.00;;;;;;;23.85;53.78;102036.16;4860375;29;20037;-76
2022/05/17 10:11:25;;;;;;;10.00;4.38;;;;;;;24.27;51.45;102058.19;4859877;29;20386;-77
2022/05/17 10:14:07;;;;;;;9.60;3.90;;;;;;;24.47;50.95;102055.34;4843550;29;20042;-77
2022/05/17 10:16:49;;;;;;;9.38;4.22;;;;;;;24.51;52.15;102051.44;4860376;29;20033;-76
2022/05/17 10:19:26;;;;;;;7.88;4.00;;;;;;;24.57;49.79;102043.69;4860482;29;20546;-76
2022/05/17 10:22:35;;;;;;;8.98;3.80;;;;;;;24.67;50.03;102045.38;4843541;29;20025;-77
2022/05/17 10:25:09;;;;;;;7.05;3.03;;;;;;;24.54;49.94;102027.34;4860187;29;20092;-76
2022/05/17 10:27:39;;;;;;;8.15;3.60;;;;;;;24.50;48.03;102047.13;4860147;29;20057;-74
2022/05/17 10:30:25;;;;;;;8.98;4.07;;;;;;;24.56;47.54;102049.13;4843380;29;20166;-75
2022/05/17 10:32:59;;;;;;;10.20;4.30;;;;;;;24.29;47.24;102015.81;4860092;29;20029;-75
2022/05/17 10:35:31;;;;;;;8.82;4.20;;;;;;;24.31;49.12;102032.34;4860026;29;20049;-74
2022/05/17 10:38:18;;;;;;;13.18;4.28;;;;;;;24.07;48.92;102008.41;4860078;29;20490;-74
2022/05/17 10:40:46;;;;;;;14.60;6.32;;;;;;;23.80;49.20;102026.06;4843932;29;20494;-75
2022/05/17 10:43:37;;;;;;;9.77;4.55;;;;;;;23.61;51.23;102034.16;4859962;29;20397;-75
2022/05/17 10:46:06;;;;;;;8.82;4.63;;;;;;;23.42;51.23;102043.88;4860012;29;20394;-76
2022/05/17 10:48:55;;;;;;;9.35;4.40;;;;;;;23.37;51.19;102046.09;4860094;29;20166;-75
2022/05/17 10:51:45;;;;;;;10.10;4.97;;;;;;;23.25;49.96;102009.59;4859965;29;20377;-75
2022/05/17 10:54:29;;;;;;;8.77;3.83;;;;;;;23.67;50.78;102044.91;4859161;29;20065;-75
2022/05/17 10:57:21;;;;;;;9.35;5.32;;;;;;;23.70;50.17;102044.63;4859876;29;20037;-75
2022/05/17 11:00:18;;;;;;;9.90;5.22;;;;;;;23.77;50.54;102038.72;4843526;29;20042;-76
2022/05/17 11:02:52;;;;;;;10.00;5.57;;;;;;;23.44;49.77;101975.16;4859899;29;20050;-75
2022/05/17 11:05:39;;;;;;;9.50;6.00;;;;;;;23.84;50.41;102035.31;4859713;29;20044;-74
2022/05/17 11:08:20;;;;;;;10.27;5.55;;;;;;;23.88;49.01;101994.44;4859887;29;20439;-75
2022/05/17 11:11:16;;;;;;;10.65;6.05;;;;;;;24.52;50.63;102034.59;4859773;29;20034;-76
2022/05/17 11:14:04;;;;;;;10.18;5.93;;;;;;;24.73;47.33;102021.78;4859906;29;20089;-75
2022/05/17 11:16:51;;;;;;;9.73;6.07;;;;;;;24.74;48.26;101985.63;4859894;29;20131;-76
2022/05/17 11:19:27;;;;;;;9.60;6.53;;;;;;;24.67;48.08;101966.13;4859977;29;20037;-72
2022/05/17 11:22:00;;;;;;;12.25;6.97;;;;;;;24.59;48.03;101973.06;4861746;29;20037;-76
2022/05/17 11:25:04;;;;;;;9.68;6.50;;;;;;;24.54;49.67;101974.50;4862965;29;20033;-75
2022/05/17 11:27:47;;;;;;;16.15;8.15;;;;;;;24.48;50.08;102004.19;4858431;29;20054;-75
2022/05/17 11:30:20;;;;;;;12.77;8.68;;;;;;;24.20;49.05;101978.00;4846246;29;20051;-75
2022/05/17 11:33:22;;;;;;;12.40;8.25;;;;;;;24.19;50.26;101994.00;4863054;29;20057;-75
2022/05/17 11:35:59;;;;;;;12.32;8.48;;;;;;;23.98;50.04;101979.34;4846327;29;20041;-75
2022/05/17 11:38:31;;;;;;;13.50;8.55;;;;;;;24.07;51.52;101992.59;4861076;29;20068;-73
2022/05/17 11:40:58;;;;;;;13.75;8.45;;;;;;;24.10;52.60;101979.94;4844422;29;20045;-76